Time;durP1;ratioP1;P1;durP2;ratioP2;P2;SDS_P1;SDS_P2;PMS_P1;PMS_P2;Temp;Humidity;BMP_temperature;BMP_pressure;BME280_temperature;BME280_humidity;BME280_pressure;Samples;Min_cycle;Max_cycle;Signal;HPM_P1;HPM_P2
2021/08/31 00:00:24;;;;;;;6.43;3.20;;;;;;;18.57;69.97;99925.88;4939676;29;20040;-79
2021/08/31 00:02:51;;;;;;;7.72;3.97;;;;;;;18.43;69.74;99916.56;4957139;29;20051;-79
2021/08/31 00:05:18;;;;;;;5.70;3.40;;;;;;;18.22;68.99;99915.81;4956910;28;20040;-78
2021/08/31 00:07:45;;;;;;;3.33;2.67;;;;;;;18.23;68.30;99918.31;4957351;29;20085;-79
2021/08/31 00:10:12;;;;;;;4.60;2.78;;;;;;;18.59;68.45;99927.44;4956987;29;20448;-78
2021/08/31 00:12:42;;;;;;;8.02;4.00;;;;;;;18.55;69.34;99933.94;4956866;29;20040;-78
2021/08/31 00:15:10;;;;;;;7.18;3.88;;;;;;;18.01;71.80;99927.25;4956969;29;20044;-79
2021/08/31 00:17:37;;;;;;;9.27;4.00;;;;;;;18.25;70.92;99923.44;4957108;29;20094;-78
2021/08/31 00:20:07;;;;;;;5.25;3.65;;;;;;;18.09;71.56;99933.66;4956759;29;20039;-78
2021/08/31 00:22:37;;;;;;;9.20;4.03;;;;;;;17.90;70.39;99926.50;4955497;28;20114;-79
2021/08/31 00:25:06;;;;;;;3.22;2.65;;;;;;;17.65;70.44;99927.72;4957185;29;20433;-78
2021/08/31 00:27:34;;;;;;;5.13;2.88;;;;;;;17.63;71.56;99934.88;4956509;29;20039;-79
2021/08/31 00:30:00;;;;;;;5.80;4.90;;;;;;;17.70;72.01;99929.00;4956529;29;20466;-78
2021/08/31 00:32:27;;;;;;;5.43;4.30;;;;;;;17.70;73.24;99933.44;4956659;29;20047;-78
2021/08/31 00:34:54;;;;;;;4.55;3.47;;;;;;;17.73;73.68;99938.44;4956110;28;20090;-79
2021/08/31 00:37:20;;;;;;;28.42;4.22;;;;;;;17.60;70.88;99943.91;4957128;29;20047;-79
2021/08/31 00:39:47;;;;;;;6.18;2.70;;;;;;;17.56;70.74;99945.13;4956476;29;20043;-77
2021/08/31 00:42:14;;;;;;;4.95;3.05;;;;;;;17.44;71.49;99944.34;4939576;29;20039;-78
2021/08/31 00:44:41;;;;;;;4.55;3.30;;;;;;;17.68;70.90;99949.34;4956194;29;20050;-76
2021/08/31 00:47:08;;;;;;;5.00;3.47;;;;;;;17.72;70.47;99953.44;4956791;29;20043;-77
2021/08/31 00:49:36;;;;;;;6.55;3.17;;;;;;;17.82;71.39;99944.75;4956353;29;20043;-77
2021/08/31 00:52:03;;;;;;;4.57;3.10;;;;;;;17.63;72.60;99943.66;4956800;29;20047;-77
2021/08/31 00:54:30;;;;;;;5.95;2.67;;;;;;;17.42;71.07;99945.47;4955844;29;20043;-78
2021/08/31 00:57:00;;;;;;;4.53;2.60;;;;;;;17.32;71.64;99949.81;4956689;29;20094;-78
2021/08/31 00:59:26;;;;;;;5.63;3.22;;;;;;;17.39;72.13;99949.16;4956489;29;20040;-77
2021/08/31 01:01:54;;;;;;;3.85;2.95;;;;;;;17.39;71.76;99935.16;4955784;29;20047;-77
2021/08/31 01:04:26;;;;;;;6.35;3.40;;;;;;;17.51;71.58;99949.94;4956530;29;20435;-77
2021/08/31 01:06:55;;;;;;;5.03;3.85;;;;;;;17.49;70.99;99949.25;4955785;28;20067;-77
2021/08/31 01:09:24;;;;;;;3.63;2.55;;;;;;;17.69;70.07;99953.69;4959199;29;20035;-77
2021/08/31 01:11:56;;;;;;;5.07;2.40;;;;;;;17.24;70.80;99948.63;4962683;29;20047;-77
2021/08/31 01:14:23;;;;;;;3.22;2.15;;;;;;;17.25;71.31;99958.19;4957560;29;20409;-77
2021/08/31 01:16:51;;;;;;;3.92;2.42;;;;;;;17.18;71.21;99954.41;4955362;29;20485;-78
2021/08/31 01:19:24;;;;;;;5.68;3.10;;;;;;;17.28;71.29;99957.13;4956064;29;20039;-77
2021/08/31 01:21:51;;;;;;;2.90;2.50;;;;;;;17.18;71.26;99959.66;4950307;29;20099;-78
2021/08/31 01:24:18;;;;;;;4.13;3.03;;;;;;;17.14;72.05;99963.50;4948605;29;20086;-78
2021/08/31 01:26:47;;;;;;;2.70;2.33;;;;;;;17.45;69.81;99955.72;4955867;29;20098;-77
2021/08/31 01:29:14;;;;;;;3.67;2.58;;;;;;;17.18;70.49;99949.13;4955477;29;20513;-78
2021/08/31 01:31:42;;;;;;;2.78;2.53;;;;;;;16.95;72.27;99939.66;4955552;29;20051;-77
2021/08/31 01:34:08;;;;;;;3.80;3.45;;;;;;;17.13;71.71;99938.13;4954930;28;20050;-80
2021/08/31 01:36:36;;;;;;;4.82;2.20;;;;;;;16.83;71.35;99943.25;4954904;29;20059;-80
2021/08/31 01:39:05;;;;;;;4.47;2.55;;;;;;;16.62;72.36;99943.16;4955027;29;20039;-77
2021/08/31 01:41:33;;;;;;;3.92;2.63;;;;;;;16.92;71.06;99951.25;4955460;29;20075;-75
2021/08/31 01:44:00;;;;;;;7.40;2.65;;;;;;;17.13;71.35;99964.47;4954968;29;20493;-78
2021/08/31 01:46:27;;;;;;;5.28;2.83;;;;;;;17.47;70.06;99967.81;4955055;29;20478;-80
2021/08/31 01:48:54;;;;;;;2.78;2.58;;;;;;;16.90;70.95;99962.88;4955357;29;20055;-80
2021/08/31 01:51:21;;;;;;;4.10;2.90;;;;;;;16.76;71.18;99964.81;4955265;29;20078;-80
2021/08/31 01:53:47;;;;;;;4.57;3.33;;;;;;;16.86;71.60;99966.72;4955474;29;20090;-79
2021/08/31 01:56:14;;;;;;;5.25;3.78;;;;;;;16.83;72.31;99965.19;4954866;29;20043;-80
2021/08/31 01:58:41;;;;;;;6.10;4.22;;;;;;;16.73;73.14;99966.88;4955555;29;20438;-79
2021/08/31 02:01:08;;;;;;;3.20;2.47;;;;;;;16.65;73.29;99958.72;4955852;29;20103;-79
2021/08/31 02:03:35;;;;;;;5.38;3.65;;;;;;;16.54;73.43;99964.84;4959343;29;20044;-80
2021/08/31 02:06:02;;;;;;;4.32;3.45;;;;;;;17.06;72.60;99962.47;4954766;28;20043;-79
2021/08/31 02:08:28;;;;;;;7.05;3.47;;;;;;;16.91;72.33;99968.03;4954979;29;20387;-79
2021/08/31 02:10:55;;;;;;;5.53;4.85;;;;;;;16.74;73.73;99977.28;4954429;29;20494;-79
2021/08/31 02:13:23;;;;;;;5.85;3.67;;;;;;;16.70;73.48;99967.91;4955579;29;20059;-78
2021/08/31 02:15:50;;;;;;;6.15;2.72;;;;;;;16.58;73.16;99966.25;4937550;29;20391;-78
2021/08/31 02:18:17;;;;;;;6.05;3.40;;;;;;;16.61;73.34;99971.28;4954900;29;20090;-79
2021/08/31 02:20:43;;;;;;;4.15;3.30;;;;;;;16.10;74.05;99968.31;4954818;29;20113;-78
2021/08/31 02:23:10;;;;;;;4.75;3.42;;;;;;;16.47;73.95;99963.66;4954501;29;20130;-79
2021/08/31 02:25:37;;;;;;;8.60;4.80;;;;;;;16.41;75.03;99975.50;4954556;29;20102;-79
2021/08/31 02:28:04;;;;;;;5.10;4.35;;;;;;;16.68;73.74;99976.91;4954574;29;20067;-79
2021/08/31 02:30:31;;;;;;;4.85;4.18;;;;;;;16.49;74.16;99988.03;4954576;29;20035;-77
2021/08/31 02:33:00;;;;;;;3.80;3.10;;;;;;;16.51;73.91;99986.09;4953982;29;20083;-79
2021/08/31 02:35:27;;;;;;;5.20;4.30;;;;;;;16.33;74.53;99977.03;4942686;28;20058;-79
2021/08/31 02:37:54;;;;;;;7.97;5.28;;;;;;;16.28;76.03;99969.50;4954602;29;20047;-78
2021/08/31 02:40:21;;;;;;;6.95;4.63;;;;;;;16.68;74.76;99966.38;4954400;29;20398;-78
2021/08/31 02:42:48;;;;;;;10.88;4.22;;;;;;;16.01;75.58;99977.75;4954788;29;20070;-79
2021/08/31 02:45:14;;;;;;;9.63;3.50;;;;;;;15.93;75.61;99980.13;4953530;28;20035;-79
2021/08/31 02:47:41;;;;;;;5.63;3.55;;;;;;;16.06;75.02;99990.53;4954463;29;20050;-75
2021/08/31 02:50:08;;;;;;;5.72;3.72;;;;;;;16.15;75.33;99985.41;4954152;29;20035;-78
2021/08/31 02:52:35;;;;;;;9.60;4.38;;;;;;;16.32;75.23;99983.25;4954365;29;20090;-78
2021/08/31 02:55:02;;;;;;;5.25;3.80;;;;;;;16.40;74.93;99989.59;4953933;29;20077;-78
2021/08/31 02:57:29;;;;;;;5.07;3.30;;;;;;;16.29;75.51;99986.13;4954504;29;20043;-78
2021/08/31 02:59:56;;;;;;;5.88;2.90;;;;;;;16.36;73.61;99974.19;4953771;29;20043;-78
2021/08/31 03:02:23;;;;;;;4.85;2.78;;;;;;;16.37;73.00;99994.25;4954884;29;20043;-78
2021/08/31 03:04:49;;;;;;;7.45;2.78;;;;;;;15.90;74.29;99985.63;4954020;28;20492;-79
2021/08/31 03:07:17;;;;;;;9.18;3.60;;;;;;;16.13;74.02;99989.94;4954209;29;20050;-79
2021/08/31 03:09:43;;;;;;;4.55;3.22;;;;;;;16.02;73.85;99978.56;4953898;29;20077;-79
2021/08/31 03:12:10;;;;;;;2.95;2.65;;;;;;;16.29;72.74;99983.50;4933762;29;20421;-78
2021/08/31 03:14:39;;;;;;;2.80;2.60;;;;;;;16.00;73.76;99997.09;4935477;29;20091;-77
2021/08/31 03:17:06;;;;;;;4.07;2.83;;;;;;;15.85;74.24;99987.75;4953299;29;20054;-79
2021/08/31 03:19:34;;;;;;;8.32;2.70;;;;;;;15.79;74.40;100001.38;4954089;29;20039;-78
2021/08/31 03:22:04;;;;;;;3.40;2.55;;;;;;;15.84;73.83;99994.81;4953822;29;20473;-77
2021/08/31 03:24:31;;;;;;;3.17;2.80;;;;;;;15.73;73.88;99999.19;4954168;29;20552;-78
2021/08/31 03:26:58;;;;;;;6.57;2.95;;;;;;;15.86;73.81;99994.69;4953737;29;20049;-78
2021/08/31 03:29:25;;;;;;;4.85;3.17;;;;;;;15.74;74.58;99995.63;4954257;29;20044;-78
2021/08/31 03:31:52;;;;;;;3.00;2.70;;;;;;;15.81;74.32;99987.13;4954026;29;20047;-77
2021/08/31 03:34:18;;;;;;;4.85;2.35;;;;;;;15.86;74.45;99989.44;4953586;29;20110;-78
2021/08/31 03:36:45;;;;;;;5.50;2.90;;;;;;;15.78;74.23;99987.38;4953969;28;20051;-78
2021/08/31 03:39:12;;;;;;;3.70;2.83;;;;;;;15.66;75.00;99988.31;4953589;29;20039;-77
2021/08/31 03:41:39;;;;;;;3.47;2.60;;;;;;;15.71;74.72;99980.91;4953979;29;20573;-77
2021/08/31 03:44:06;;;;;;;4.38;3.08;;;;;;;15.73;75.04;99988.69;4953468;29;20043;-78
2021/08/31 03:46:33;;;;;;;4.72;2.72;;;;;;;15.62;75.88;99989.47;4953918;29;20354;-78
2021/08/31 03:49:01;;;;;;;3.50;2.75;;;;;;;15.66;76.08;99993.56;4953443;29;20043;-78
2021/08/31 03:51:28;;;;;;;6.45;3.20;;;;;;;15.66;76.73;99988.31;4953993;29;20102;-77
2021/08/31 03:53:55;;;;;;;6.13;4.10;;;;;;;15.61;77.16;99990.44;4953776;29;20043;-77
2021/08/31 03:56:22;;;;;;;5.13;3.88;;;;;;;15.71;76.95;99997.53;4954803;28;20106;-76
2021/08/31 03:58:49;;;;;;;5.13;3.30;;;;;;;15.73;76.79;99988.69;4957423;29;20047;-76
2021/08/31 04:01:16;;;;;;;4.70;3.10;;;;;;;15.69;77.00;99988.91;4957010;29;20102;-76
2021/08/31 04:03:43;;;;;;;3.70;2.65;;;;;;;15.72;76.75;99987.84;4957375;29;20055;-76
2021/08/31 04:06:10;;;;;;;3.30;2.65;;;;;;;15.66;77.28;99993.56;4957066;28;20050;-76
2021/08/31 04:08:37;;;;;;;5.63;4.15;;;;;;;15.63;75.92;99997.25;4956904;29;20047;-77
2021/08/31 04:11:03;;;;;;;4.90;2.85;;;;;;;15.45;76.39;99993.34;4956597;29;20035;-77
2021/08/31 04:13:31;;;;;;;3.63;2.95;;;;;;;15.51;76.60;99995.53;4957534;29;20047;-77
2021/08/31 04:15:57;;;;;;;4.85;3.42;;;;;;;15.55;77.27;100001.38;4956839;29;20039;-75
2021/08/31 04:18:24;;;;;;;5.47;3.30;;;;;;;15.32;77.68;99989.94;4957317;29;20442;-77
2021/08/31 04:20:51;;;;;;;6.05;3.30;;;;;;;15.41;77.59;100007.66;4939901;29;20094;-77
2021/08/31 04:23:18;;;;;;;5.40;3.38;;;;;;;15.60;76.45;100010.56;4957082;29;20071;-77
2021/08/31 04:25:44;;;;;;;4.65;3.30;;;;;;;15.51;76.60;100006.03;4957126;29;20454;-76
2021/08/31 04:28:11;;;;;;;4.00;3.13;;;;;;;15.70;76.68;100001.09;4956635;29;20043;-77
2021/08/31 04:30:38;;;;;;;5.20;2.65;;;;;;;15.20;77.46;100008.28;4956881;29;20494;-77
2021/08/31 04:33:05;;;;;;;3.88;3.47;;;;;;;15.10;77.92;100015.16;4956876;29;20450;-75
2021/08/31 04:35:32;;;;;;;4.32;3.42;;;;;;;15.15;78.55;100014.81;4945257;28;20051;-77
2021/08/31 04:37:59;;;;;;;3.90;3.45;;;;;;;15.17;79.01;100010.28;4956089;29;20051;-77
2021/08/31 04:40:26;;;;;;;9.57;3.60;;;;;;;15.25;78.99;100018.44;4945644;29;20095;-77
2021/08/31 04:42:53;;;;;;;9.23;3.58;;;;;;;15.40;78.71;100009.44;4951621;29;20047;-77
2021/08/31 04:45:20;;;;;;;5.22;3.33;;;;;;;15.53;78.75;100009.38;4954473;29;20442;-76
2021/08/31 04:47:46;;;;;;;5.35;3.00;;;;;;;15.59;78.23;100024.66;4955457;29;20028;-76
2021/08/31 04:50:13;;;;;;;4.32;3.55;;;;;;;15.66;77.68;100025.13;4955859;29;20110;-76
2021/08/31 04:52:40;;;;;;;4.53;2.97;;;;;;;15.75;76.10;100018.31;4950127;29;20051;-77
2021/08/31 04:55:07;;;;;;;3.10;2.65;;;;;;;15.58;76.21;100019.53;4952695;29;20039;-76
2021/08/31 04:57:34;;;;;;;4.38;3.03;;;;;;;15.61;75.68;100025.41;4954157;28;20051;-78
2021/08/31 05:00:01;;;;;;;4.57;2.75;;;;;;;15.78;75.21;100024.19;4955318;29;20050;-77
2021/08/31 05:02:29;;;;;;;8.70;4.32;;;;;;;15.88;74.13;100016.44;4952190;28;20054;-77
2021/08/31 05:04:56;;;;;;;6.35;3.28;;;;;;;15.94;74.31;100021.25;4952885;29;20513;-77
2021/08/31 05:07:23;;;;;;;4.82;3.08;;;;;;;16.17;74.37;100017.69;4953662;29;20046;-78
2021/08/31 05:09:50;;;;;;;7.20;3.15;;;;;;;16.12;74.15;100017.19;4954638;28;20047;-76
2021/08/31 05:12:16;;;;;;;3.75;2.65;;;;;;;15.96;74.65;100030.66;4955429;29;20046;-77
2021/08/31 05:14:43;;;;;;;3.97;2.70;;;;;;;16.16;74.00;100031.78;4955683;29;20047;-77
2021/08/31 05:17:11;;;;;;;5.18;2.35;;;;;;;16.45;72.84;100028.69;4955504;29;20415;-78
2021/08/31 05:19:42;;;;;;;4.28;2.85;;;;;;;16.50;72.38;100031.81;4956405;29;20051;-76
2021/08/31 05:22:10;;;;;;;4.05;2.80;;;;;;;16.57;72.25;100032.19;4955751;29;20045;-78
2021/08/31 05:24:38;;;;;;;4.97;3.13;;;;;;;16.64;72.00;100043.91;4956262;29;20090;-79
2021/08/31 05:27:06;;;;;;;5.25;3.33;;;;;;;16.72;71.89;100037.13;4955888;29;20039;-78
2021/08/31 05:29:33;;;;;;;4.40;2.53;;;;;;;16.82;71.88;100029.31;4955948;29;20039;-76
2021/08/31 05:32:01;;;;;;;4.95;3.40;;;;;;;17.14;71.14;100041.69;4955416;29;20450;-76
2021/08/31 05:34:28;;;;;;;3.75;3.25;;;;;;;17.39;70.59;100040.56;4955538;29;20044;-76
2021/08/31 05:36:58;;;;;;;6.47;3.95;;;;;;;17.41;71.27;100034.19;4955550;29;20094;-77
2021/08/31 05:39:32;;;;;;;8.20;4.40;;;;;;;17.31;73.13;100037.69;4955549;29;20109;-76
2021/08/31 05:42:00;;;;;;;;;;;;;;;17.29;73.13;100045.72;4956332;29;20043;-78
2021/08/31 05:44:27;;;;;;;7.47;4.47;;;;;;;17.26;73.31;100048.63;4955108;29;19927;-77
2021/08/31 05:46:54;;;;;;;12.75;4.80;;;;;;;17.34;72.96;100048.00;4955068;29;20398;-81
2021/08/31 05:49:21;;;;;;;5.95;4.32;;;;;;;17.76;71.90;100051.56;4955326;29;20031;-79
2021/08/31 05:51:47;;;;;;;9.77;4.63;;;;;;;18.00;70.65;100046.03;4955416;29;20036;-80
2021/08/31 05:54:14;;;;;;;4.70;4.20;;;;;;;18.28;67.25;100055.94;4953907;29;20043;-81
2021/08/31 05:56:41;;;;;;;3.42;3.08;;;;;;;18.26;66.92;100054.38;4955198;29;20061;-78
2021/08/31 05:59:08;;;;;;;3.03;2.72;;;;;;;18.46;66.05;100060.59;4955914;29;20465;-85
2021/08/31 06:01:36;;;;;;;4.32;3.28;;;;;;;18.33;66.47;100066.09;4955265;28;20070;-84
2021/08/31 06:04:03;;;;;;;6.90;3.58;;;;;;;18.31;67.40;100050.38;4953031;28;20046;-81
2021/08/31 06:06:30;;;;;;;13.05;6.32;;;;;;;18.27;69.55;100064.84;4932440;29;20048;-75
2021/08/31 06:08:56;;;;;;;7.82;5.78;;;;;;;18.68;68.01;100060.44;4954176;29;20122;-80
2021/08/31 06:11:23;;;;;;;9.60;5.28;;;;;;;18.31;69.12;100058.31;4954293;29;20039;-77
2021/08/31 06:13:50;;;;;;;12.85;5.57;;;;;;;18.71;66.56;100060.19;4954052;29;20113;-77
2021/08/31 06:16:17;;;;;;;12.77;5.85;;;;;;;18.86;66.33;100057.19;4953431;29;20478;-75
2021/08/31 06:18:44;;;;;;;10.85;5.47;;;;;;;19.08;65.07;100051.69;4954448;29;20106;-75
2021/08/31 06:21:10;;;;;;;14.77;3.88;;;;;;;18.93;64.56;100059.16;4953962;28;20043;-76
2021/08/31 06:23:37;;;;;;;7.35;4.90;;;;;;;19.05;63.45;100060.72;4954710;29;20043;-76
2021/08/31 06:26:04;;;;;;;12.70;5.32;;;;;;;19.05;63.07;100059.88;4953814;29;20043;-77
2021/08/31 06:28:32;;;;;;;6.53;4.55;;;;;;;19.25;62.72;100061.59;4953950;29;20044;-76
2021/08/31 06:30:59;;;;;;;5.20;4.28;;;;;;;19.09;62.46;100058.63;4937438;29;20054;-76
2021/08/31 06:33:26;;;;;;;8.43;4.97;;;;;;;19.04;63.55;100063.50;4952536;29;20098;-76
2021/08/31 06:35:52;;;;;;;5.72;4.97;;;;;;;18.83;63.76;100060.94;4952248;29;20051;-75
2021/08/31 06:38:20;;;;;;;9.27;4.25;;;;;;;19.05;63.37;100065.16;4952408;29;20047;-76
2021/08/31 06:40:46;;;;;;;9.52;4.93;;;;;;;18.58;64.21;100064.81;4952730;29;20047;-74
2021/08/31 06:43:14;;;;;;;9.05;5.43;;;;;;;18.71;64.37;100073.41;4952569;29;20051;-75
2021/08/31 06:45:41;;;;;;;16.30;4.50;;;;;;;19.09;64.23;100071.84;4936025;29;20449;-76
2021/08/31 06:48:08;;;;;;;6.75;5.53;;;;;;;19.06;64.16;100070.28;4954188;29;20461;-75
2021/08/31 06:50:35;;;;;;;8.68;5.80;;;;;;;19.20;65.01;100069.09;4954312;29;20461;-77
2021/08/31 06:53:02;;;;;;;10.35;6.82;;;;;;;19.13;65.59;100062.69;4954206;29;20082;-77
2021/08/31 06:55:29;;;;;;;10.68;7.57;;;;;;;19.19;65.43;100072.72;4954526;29;20039;-75
2021/08/31 06:57:56;;;;;;;12.52;6.78;;;;;;;19.21;64.85;100073.41;4937543;29;20043;-76
2021/08/31 07:00:23;;;;;;;8.27;6.28;;;;;;;19.43;64.45;100074.13;4944180;29;20052;-76
2021/08/31 07:02:49;;;;;;;10.77;5.88;;;;;;;19.52;64.65;100083.88;4949405;29;20051;-75
2021/08/31 07:05:16;;;;;;;12.20;7.63;;;;;;;19.54;64.02;100085.41;4953471;29;20430;-75
2021/08/31 07:07:43;;;;;;;8.23;5.78;;;;;;;19.22;65.75;100082.16;4951988;29;20039;-76
2021/08/31 07:10:10;;;;;;;14.57;6.90;;;;;;;19.04;66.94;100095.19;4954280;29;20438;-77
2021/08/31 07:12:37;;;;;;;8.13;6.50;;;;;;;18.87;68.28;100093.19;4955177;29;20055;-74
2021/08/31 07:15:05;;;;;;;10.85;6.40;;;;;;;18.65;69.56;100102.94;4953691;29;20043;-75
2021/08/31 07:17:31;;;;;;;13.13;6.93;;;;;;;19.12;68.59;100097.97;4950722;29;20054;-76
2021/08/31 07:19:58;;;;;;;6.72;5.10;;;;;;;19.24;68.27;100086.34;4953498;29;20138;-74
2021/08/31 07:22:25;;;;;;;8.02;6.03;;;;;;;19.46;67.04;100084.44;4950839;29;20443;-76
2021/08/31 07:24:52;;;;;;;7.90;6.10;;;;;;;19.43;67.11;100090.00;4953382;29;20545;-77
2021/08/31 07:27:18;;;;;;;10.40;7.07;;;;;;;19.15;68.65;100097.72;4957249;29;20057;-76
2021/08/31 07:29:45;;;;;;;9.30;7.35;;;;;;;19.06;69.02;100088.78;4951503;29;20045;-74
2021/08/31 07:32:12;;;;;;;11.25;7.38;;;;;;;19.10;68.84;100094.66;4950443;28;20035;-74
2021/08/31 07:34:40;;;;;;;11.88;6.40;;;;;;;18.79;70.12;100099.13;4955526;29;20040;-74
2021/08/31 07:37:07;;;;;;;9.75;7.25;;;;;;;18.74;70.33;100096.88;4947362;29;20036;-75
2021/08/31 07:39:34;;;;;;;9.40;6.93;;;;;;;19.06;69.11;100095.88;4953495;29;20039;-75
2021/08/31 07:42:02;;;;;;;8.93;5.80;;;;;;;19.28;67.85;100087.75;4954689;29;20442;-76
2021/08/31 07:44:28;;;;;;;10.18;6.30;;;;;;;19.43;66.86;100090.81;4955067;29;20043;-75
2021/08/31 07:46:57;;;;;;;12.38;5.65;;;;;;;19.56;65.83;100091.41;4953149;29;20071;-74
2021/08/31 07:49:24;;;;;;;10.82;5.03;;;;;;;19.69;64.98;100096.44;4939439;29;20044;-75
2021/08/31 07:51:51;;;;;;;10.15;6.72;;;;;;;19.29;66.20;100097.34;4954519;28;20505;-76
2021/08/31 07:54:18;;;;;;;33.55;6.78;;;;;;;19.19;66.92;100093.84;4949789;28;20054;-74
2021/08/31 07:56:45;;;;;;;7.03;6.38;;;;;;;19.60;65.29;100097.25;4947645;29;20043;-74
2021/08/31 07:59:11;;;;;;;9.05;6.53;;;;;;;19.15;67.11;100103.00;4950554;29;20110;-75
2021/08/31 08:01:41;;;;;;;7.82;5.40;;;;;;;19.57;65.50;100103.66;4955012;28;20043;-75
2021/08/31 08:04:08;;;;;;;10.25;6.43;;;;;;;19.70;64.67;100107.84;4951075;29;20035;-77
2021/08/31 08:06:36;;;;;;;9.77;5.03;;;;;;;19.89;64.06;100108.69;4950639;29;20065;-76
2021/08/31 08:09:03;;;;;;;9.60;6.13;;;;;;;19.77;64.35;100109.81;4950728;29;20106;-76
2021/08/31 08:11:30;;;;;;;9.45;6.28;;;;;;;19.75;64.68;100108.28;4955059;29;20065;-75
2021/08/31 08:13:56;;;;;;;8.52;5.45;;;;;;;20.06;63.72;100108.97;4954263;28;20051;-75
2021/08/31 08:16:23;;;;;;;9.15;6.22;;;;;;;20.15;63.08;100108.13;4949637;29;20047;-76
2021/08/31 08:18:50;;;;;;;10.43;6.18;;;;;;;20.34;62.70;100113.38;4952727;29;20094;-75
2021/08/31 08:21:17;;;;;;;9.65;5.75;;;;;;;20.55;61.69;100110.56;4950960;29;20418;-75
2021/08/31 08:23:45;;;;;;;8.73;6.35;;;;;;;20.29;62.53;100109.47;4953570;29;20047;-76
2021/08/31 08:26:12;;;;;;;6.60;5.32;;;;;;;20.53;61.31;100103.75;4950271;29;20042;-74
2021/08/31 08:28:39;;;;;;;7.63;4.93;;;;;;;20.50;61.06;100115.44;4950469;29;20102;-75
2021/08/31 08:31:07;;;;;;;7.72;4.90;;;;;;;20.56;61.10;100114.03;4936236;29;20094;-75
2021/08/31 08:33:34;;;;;;;20.60;5.53;;;;;;;20.26;61.91;100109.78;4951636;29;20075;-75
2021/08/31 08:36:03;;;;;;;17.45;5.65;;;;;;;20.54;61.63;100114.19;4952680;29;20142;-75
2021/08/31 08:38:31;;;;;;;12.00;5.15;;;;;;;20.74;61.06;100111.50;4953291;29;20075;-76
2021/08/31 08:40:58;;;;;;;11.82;4.45;;;;;;;20.85;60.65;100112.13;4949319;29;20035;-75
2021/08/31 08:43:25;;;;;;;11.38;5.57;;;;;;;20.59;61.52;100113.75;4947623;28;20039;-75
2021/08/31 08:45:52;;;;;;;7.18;4.25;;;;;;;20.65;60.50;100124.59;4947414;29;20039;-76
2021/08/31 08:48:21;;;;;;;6.18;3.20;;;;;;;20.74;60.15;100124.75;4934883;29;20728;-75
2021/08/31 08:50:49;;;;;;;10.13;5.28;;;;;;;20.89;60.67;100128.59;4949238;29;20039;-77
2021/08/31 08:53:18;;;;;;;6.68;5.03;;;;;;;20.95;60.56;100122.69;4951715;29;20147;-77
2021/08/31 08:55:45;;;;;;;7.35;4.28;;;;;;;20.97;60.42;100120.72;4952845;28;20426;-78
2021/08/31 08:58:13;;;;;;;8.93;4.72;;;;;;;20.96;60.08;100124.38;4937214;29;20051;-78
2021/08/31 09:01:16;;;;;;;12.25;4.03;;;;;;;21.02;59.74;100125.59;4948638;29;20250;-77
2021/08/31 09:03:53;;;;;;;6.30;3.67;;;;;;;21.11;60.14;100114.13;4950198;29;20054;-74
2021/08/31 09:06:22;;;;;;;10.02;4.70;;;;;;;20.83;61.94;100130.00;4930820;28;20519;-76
2021/08/31 09:09:00;;;;;;;41.30;8.00;;;;;;;21.10;61.20;100136.31;4949992;29;20047;-77
2021/08/31 09:11:33;;;;;;;12.20;4.43;;;;;;;20.86;62.12;100124.41;4951131;28;20613;-78
2021/08/31 09:14:25;;;;;;;6.15;4.32;;;;;;;20.80;62.37;100130.28;4953408;29;20680;-76
2021/08/31 09:17:00;;;;;;;6.60;4.40;;;;;;;20.76;62.33;100123.59;4948491;28;20051;-77
2021/08/31 09:19:31;;;;;;;10.70;5.32;;;;;;;20.76;63.13;100134.19;4948815;29;20044;-74
2021/08/31 09:22:18;;;;;;;6.18;4.60;;;;;;;20.77;63.47;100135.84;4953436;28;20046;-77
2021/08/31 09:25:11;;;;;;;11.45;4.60;;;;;;;20.66;63.73;100134.22;4951949;28;20502;-75
2021/08/31 09:27:41;;;;;;;5.95;4.03;;;;;;;20.63;63.28;100133.69;4949292;29;20130;-77
2021/08/31 09:30:15;;;;;;;8.88;4.30;;;;;;;20.38;65.79;100137.75;4946359;28;20042;-77
2021/08/31 09:32:58;;;;;;;12.88;5.55;;;;;;;19.97;68.34;100141.53;4951312;28;20525;-76
2021/08/31 09:35:30;;;;;;;8.55;5.07;;;;;;;20.00;70.26;100146.56;4952222;28;20062;-76
2021/08/31 09:37:59;;;;;;;4.75;4.25;;;;;;;19.90;72.73;100135.97;4954655;29;20043;-75
2021/08/31 09:40:29;;;;;;;8.95;4.72;;;;;;;19.69;75.51;100132.63;4950183;29;20035;-75
2021/08/31 09:43:06;;;;;;;5.90;4.65;;;;;;;19.73;77.97;100128.75;4953080;29;20405;-77
2021/08/31 09:45:38;;;;;;;6.60;5.90;;;;;;;19.71;77.78;100130.69;4953725;29;20110;-75
2021/08/31 09:48:06;;;;;;;5.13;4.63;;;;;;;19.73;77.89;100131.38;4946919;29;20055;-78
2021/08/31 09:50:37;;;;;;;9.57;5.70;;;;;;;19.50;79.95;100133.44;4953451;29;20044;-76
2021/08/31 09:53:07;;;;;;;8.18;4.68;;;;;;;19.77;78.81;100128.34;4953109;29;20043;-76
2021/08/31 09:55:34;;;;;;;8.00;4.95;;;;;;;19.43;79.68;100132.28;4954930;28;20049;-75
2021/08/31 09:58:15;;;;;;;12.15;5.03;;;;;;;19.65;79.04;100136.50;4948906;29;20055;-77
2021/08/31 10:00:45;;;;;;;13.02;4.43;;;;;;;19.64;78.13;100127.75;4960464;29;20047;-79
2021/08/31 10:03:13;;;;;;;14.85;5.55;;;;;;;19.57;79.14;100134.53;4972440;28;20047;-79
2021/08/31 10:05:41;;;;;;;6.40;5.00;;;;;;;19.62;78.58;100137.66;4956135;29;20047;-77
2021/08/31 10:08:09;;;;;;;8.43;4.18;;;;;;;19.53;77.75;100127.84;4964565;29;20040;-76
2021/08/31 10:10:38;;;;;;;11.75;5.45;;;;;;;19.54;77.59;100132.16;4965860;29;20039;-85
2021/08/31 10:13:11;;;;;;;6.28;4.80;;;;;;;19.49;77.46;100140.50;4970438;29;20050;-76
2021/08/31 10:15:44;;;;;;;6.82;5.20;;;;;;;19.54;77.38;100132.16;4964203;29;20055;-78
2021/08/31 10:18:10;;;;;;;5.05;4.05;;;;;;;19.79;76.21;100138.75;4963087;29;20126;-77
2021/08/31 10:20:44;;;;;;;6.88;4.55;;;;;;;19.86;76.09;100146.00;4963952;29;20043;-76
2021/08/31 10:23:15;;;;;;;6.60;4.43;;;;;;;19.48;77.32;100135.34;4951641;29;20429;-78
2021/08/31 10:25:42;;;;;;;11.35;4.90;;;;;;;19.22;79.04;100145.56;4948986;29;20090;-77
2021/08/31 10:28:26;;;;;;;9.20;3.75;;;;;;;19.22;80.77;100151.69;4951318;29;20040;-76
2021/08/31 10:30:55;;;;;;;5.78;3.75;;;;;;;19.26;80.62;100145.19;4948574;29;20408;-79
2021/08/31 10:33:36;;;;;;;7.00;4.75;;;;;;;19.46;80.03;100142.59;4951792;29;20046;-80
2021/08/31 10:36:07;;;;;;;8.30;3.60;;;;;;;19.46;78.97;100139.94;4946911;29;20043;-80
2021/08/31 10:38:51;;;;;;;3.58;3.22;;;;;;;19.52;80.83;100131.47;4945760;29;20047;-78
2021/08/31 10:41:43;;;;;;;6.25;3.92;;;;;;;19.47;80.84;100138.97;4940509;29;20040;-80
2021/08/31 10:44:31;;;;;;;7.10;4.03;;;;;;;19.60;79.06;100139.56;4949117;29;20051;-77
2021/08/31 10:46:58;;;;;;;6.60;4.72;;;;;;;19.67;77.14;100140.72;4949679;29;20043;-77
2021/08/31 10:49:25;;;;;;;4.35;3.63;;;;;;;19.71;76.70;100141.25;4946899;29;20102;-76
2021/08/31 10:52:05;;;;;;;3.97;3.00;;;;;;;19.85;73.37;100144.34;4949711;29;20051;-76
2021/08/31 10:54:48;;;;;;;5.03;3.80;;;;;;;19.74;73.09;100141.81;4945534;29;20051;-75
2021/08/31 10:57:33;;;;;;;5.18;3.65;;;;;;;19.94;72.24;100142.69;4947791;29;20039;-74
2021/08/31 11:00:14;;;;;;;5.43;4.10;;;;;;;19.98;71.63;100148.53;4934828;29;20043;-76
2021/08/31 11:02:53;;;;;;;4.90;4.32;;;;;;;20.00;71.48;100141.28;4947555;29;20109;-76
2021/08/31 11:05:20;;;;;;;3.67;3.38;;;;;;;19.93;72.39;100141.00;4950334;29;20047;-78
2021/08/31 11:07:51;;;;;;;6.32;3.10;;;;;;;19.87;72.50;100137.13;4952766;28;20394;-76
2021/08/31 11:10:22;;;;;;;5.53;3.63;;;;;;;19.92;72.57;100144.63;4957936;29;20047;-78
2021/08/31 11:12:50;;;;;;;4.20;3.65;;;;;;;20.13;72.91;100140.03;4948444;29;20461;-76
2021/08/31 11:15:29;;;;;;;5.68;3.60;;;;;;;20.23;72.68;100131.22;4951646;29;20126;-76
2021/08/31 11:17:55;;;;;;;5.70;3.97;;;;;;;20.18;72.11;100133.47;4945010;29;20047;-75
2021/08/31 11:20:31;;;;;;;7.35;4.80;;;;;;;20.41;71.51;100137.47;4953961;29;20112;-74
2021/08/31 11:23:24;;;;;;;7.43;4.00;;;;;;;20.20;71.29;100135.00;4951719;29;20130;-75
2021/08/31 11:26:01;;;;;;;7.28;4.95;;;;;;;20.30;70.32;100140.28;4935072;29;20454;-76
2021/08/31 11:28:29;;;;;;;7.85;5.07;;;;;;;20.44;70.30;100134.53;4953910;29;20126;-76
2021/08/31 11:31:04;;;;;;;7.22;6.30;;;;;;;20.62;67.36;100135.50;4951946;29;20553;-75
2021/08/31 11:33:32;;;;;;;;;;;;;;;20.84;67.69;100142.25;4951929;29;20040;-77